Time;durP1;ratioP1;P1;durP2;ratioP2;P2;SDS_P1;SDS_P2;PMS_P1;PMS_P2;Temp;Humidity;BMP_temperature;BMP_pressure;BME280_temperature;BME280_humidity;BME280_pressure;Samples;Min_cycle;Max_cycle;Signal;HPM_P1;HPM_P2
2022/09/05 00:00:18;;;;;;;;;;;18.70;94.80;;;;;;5015818;28;20485;-69
2022/09/05 00:02:49;;;;;;;;;;;18.70;95.00;;;;;;5031748;28;19929;-68
2022/09/05 00:05:14;;;;;;;;;;;18.60;95.10;;;;;;5031880;28;19932;-68
2022/09/05 00:07:50;;;;;;;;;;;18.60;95.00;;;;;;5038958;28;19920;-69
2022/09/05 00:10:21;;;;;;;;;;;18.60;95.20;;;;;;5033656;28;20008;-68
2022/09/05 00:12:48;;;;;;;;;;;18.60;95.30;;;;;;5026799;28;19922;-68
2022/09/05 00:15:18;;;;;;;;;;;18.60;95.20;;;;;;4994063;28;19974;-68
2022/09/05 00:18:03;;;;;;;;;;;18.50;95.60;;;;;;4991521;28;19929;-68
2022/09/05 00:20:31;;;;;;;;;;;18.50;95.80;;;;;;5004619;28;19925;-69
2022/09/05 00:23:11;;;;;;;;;;;18.40;95.70;;;;;;5016308;28;19976;-68
2022/09/05 00:25:49;;;;;;;;;;;18.40;95.60;;;;;;5008181;28;19925;-68
2022/09/05 00:28:33;;;;;;;;;;;18.40;95.90;;;;;;5014640;28;19921;-68
2022/09/05 00:30:59;;;;;;;;;;;18.30;96.00;;;;;;5034338;28;19932;-68
2022/09/05 00:33:33;;;;;;;;;;;18.30;96.10;;;;;;5016724;28;19929;-68
2022/09/05 00:36:16;;;;;;;;;;;18.20;96.10;;;;;;5016078;28;19925;-67
2022/09/05 00:38:50;;;;;;;;;;;18.20;96.40;;;;;;5034503;28;19940;-66
2022/09/05 00:41:16;;;;;;;;;;;18.10;96.50;;;;;;5034347;28;20269;-66
2022/09/05 00:43:43;;;;;;;;;;;18.10;95.70;;;;;;5016635;28;19925;-65
2022/09/05 00:46:14;;;;;;;;;;;18.10;96.40;;;;;;5011526;28;20271;-65
2022/09/05 00:48:42;;;;;;;;;;;18.10;96.00;;;;;;5034473;28;19921;-66
2022/09/05 00:51:26;;;;;;;;;;;18.10;96.70;;;;;;5015582;28;20374;-66
2022/09/05 00:54:01;;;;;;;;;;;18.00;96.60;;;;;;5031249;28;19925;-66
2022/09/05 00:56:45;;;;;;;;;;;18.00;96.70;;;;;;5015892;28;19932;-65
2022/09/05 00:59:23;;;;;;;;;;;18.00;96.80;;;;;;5033519;28;19921;-66
2022/09/05 01:01:58;;;;;;;;;;;18.10;96.30;;;;;;5018209;28;19922;-66
2022/09/05 01:05:02;;;;;;;;;;;18.10;96.60;;;;;;5032900;28;19963;-66
2022/09/05 01:07:27;;;;;;;;;;;18.10;96.80;;;;;;4971685;28;19921;-66
2022/09/05 01:09:55;;;;;;;;;;;18.10;97.20;;;;;;4970955;28;19988;-66
2022/09/05 01:12:33;;;;;;;;;;;18.00;96.60;;;;;;4974818;28;19928;-65
2022/09/05 01:15:04;;;;;;;;;;;18.00;96.40;;;;;;5031531;28;19974;-66
2022/09/05 01:17:32;;;;;;;;;;;18.00;96.80;;;;;;5020015;28;19926;-65
2022/09/05 01:20:07;;;;;;;;;;;18.00;96.90;;;;;;5007751;28;19971;-66
2022/09/05 01:22:51;;;;;;;;;;;18.00;97.10;;;;;;5032927;28;20298;-66
2022/09/05 01:25:26;;;;;;;;;;;18.00;97.20;;;;;;4985505;28;20382;-66
2022/09/05 01:28:10;;;;;;;;;;;17.90;97.40;;;;;;4992286;28;19968;-66
2022/09/05 01:30:56;;;;;;;;;;;17.90;97.40;;;;;;5012338;28;19945;-66
2022/09/05 01:33:44;;;;;;;;;;;17.90;97.60;;;;;;5012665;28;20445;-66
2022/09/05 01:36:18;;;;;;;;;;;17.90;97.80;;;;;;5024300;28;19925;-66
2022/09/05 01:38:44;;;;;;;;;;;17.80;97.90;;;;;;5033484;28;20027;-66
2022/09/05 01:41:09;;;;;;;;;;;17.80;98.10;;;;;;5033518;28;19999;-65
2022/09/05 01:43:53;;;;;;;;;;;17.80;97.90;;;;;;5015788;28;19986;-66
2022/09/05 01:46:25;;;;;;;;;;;17.70;97.90;;;;;;5012040;28;19928;-65
2022/09/05 01:48:57;;;;;;;;;;;17.70;98.10;;;;;;4979319;28;20650;-65
2022/09/05 01:51:48;;;;;;;;;;;17.60;98.30;;;;;;5018127;28;19925;-65
2022/09/05 01:54:25;;;;;;;;;;;17.50;98.80;;;;;;5023295;28;19928;-65
2022/09/05 01:56:57;;;;;;;;;;;17.40;98.90;;;;;;5029701;28;19929;-65
2022/09/05 01:59:43;;;;;;;;;;;17.40;99.00;;;;;;5033094;28;19952;-65
2022/09/05 02:02:08;;;;;;;;;;;17.40;99.40;;;;;;4998116;28;19965;-66
2022/09/05 02:04:39;;;;;;;;;;;17.30;99.00;;;;;;5031946;28;19971;-66
2022/09/05 02:07:05;;;;;;;;;;;17.30;99.40;;;;;;5033013;28;19950;-65
2022/09/05 02:09:49;;;;;;;;;;;17.30;99.90;;;;;;5015636;28;20310;-65
2022/09/05 02:12:19;;;;;;;;;;;17.20;99.90;;;;;;5013248;28;19929;-65
2022/09/05 02:15:14;;;;;;;;;;;17.10;99.90;;;;;;5012923;28;19952;-65
2022/09/05 02:17:39;;;;;;;;;;;17.00;99.90;;;;;;4995276;28;20330;-66
2022/09/05 02:20:07;;;;;;;;;;;17.00;99.90;;;;;;5005530;28;19931;-65
2022/09/05 02:22:43;;;;;;;;;;;17.00;99.90;;;;;;5027017;28;20338;-66
2022/09/05 02:25:23;;;;;;;;;;;16.90;99.90;;;;;;5016597;28;19933;-65
2022/09/05 02:27:52;;;;;;;;;;;16.90;99.90;;;;;;5032271;28;19956;-65
2022/09/05 02:30:20;;;;;;;;;;;16.80;99.90;;;;;;5014185;28;19921;-66
2022/09/05 02:32:50;;;;;;;;;;;16.80;99.90;;;;;;5012715;28;19932;-65
2022/09/05 02:35:25;;;;;;;;;;;16.60;99.90;;;;;;5008785;28;19929;-65
2022/09/05 02:38:03;;;;;;;;;;;16.60;99.90;;;;;;5008969;28;19987;-65
2022/09/05 02:40:35;;;;;;;;;;;16.60;99.90;;;;;;4990817;28;20290;-66
2022/09/05 02:43:21;;;;;;;;;;;16.60;99.90;;;;;;5016633;28;20264;-65
2022/09/05 02:45:52;;;;;;;;;;;16.50;99.90;;;;;;4994978;28;20347;-65
2022/09/05 02:48:27;;;;;;;;;;;16.40;99.90;;;;;;5023491;28;20313;-65
2022/09/05 02:50:53;;;;;;;;;;;16.30;99.90;;;;;;4997618;28;19921;-65
2022/09/05 02:53:19;;;;;;;;;;;16.30;99.90;;;;;;5030668;28;19932;-66
2022/09/05 02:55:47;;;;;;;;;;;16.20;99.90;;;;;;5029545;28;20345;-65
2022/09/05 02:58:13;;;;;;;;;;;16.10;99.90;;;;;;5028043;28;19936;-65
2022/09/05 03:00:43;;;;;;;;;;;16.10;99.90;;;;;;5013936;28;19932;-66
2022/09/05 03:03:18;;;;;;;;;;;16.10;99.90;;;;;;5012509;28;19927;-65
2022/09/05 03:05:58;;;;;;;;;;;16.10;99.90;;;;;;5012121;28;20363;-65
2022/09/05 03:08:36;;;;;;;;;;;16.00;99.90;;;;;;4994816;28;19925;-66
2022/09/05 03:11:19;;;;;;;;;;;16.00;99.90;;;;;;4994693;28;19921;-66
2022/09/05 03:14:03;;;;;;;;;;;16.00;99.90;;;;;;4994386;28;19971;-65
2022/09/05 03:16:48;;;;;;;;;;;15.90;99.90;;;;;;5005937;28;19968;-65
2022/09/05 03:19:22;;;;;;;;;;;15.80;99.90;;;;;;5030469;28;19932;-65
2022/09/05 03:21:53;;;;;;;;;;;15.70;99.90;;;;;;5031684;28;19925;-65
2022/09/05 03:24:29;;;;;;;;;;;15.80;99.90;;;;;;5013783;28;20041;-65
2022/09/05 03:27:14;;;;;;;;;;;15.70;99.90;;;;;;5031781;28;19925;-65
2022/09/05 03:29:58;;;;;;;;;;;15.70;99.90;;;;;;5031123;28;20293;-65
2022/09/05 03:32:38;;;;;;;;;;;15.70;99.90;;;;;;5031777;28;19921;-64
2022/09/05 03:35:16;;;;;;;;;;;15.60;99.90;;;;;;5010964;28;19947;-65
2022/09/05 03:40:13;;;;;;;;;;;15.60;99.90;;;;;;5068504;28;20314;-68
2022/09/05 03:42:44;;;;;;;;;;;15.60;99.90;;;;;;5071350;28;19947;-68
2022/09/05 03:45:16;;;;;;;;;;;15.60;99.90;;;;;;5043582;28;19920;-68
2022/09/05 03:47:44;;;;;;;;;;;15.70;99.90;;;;;;5063009;28;20319;-69
2022/09/05 03:50:09;;;;;;;;;;;15.70;99.90;;;;;;5063355;28;19927;-68
2022/09/05 03:52:56;;;;;;;;;;;15.70;99.90;;;;;;5048039;28;19924;-68
2022/09/05 03:55:31;;;;;;;;;;;15.70;99.90;;;;;;5073516;28;19947;-68
2022/09/05 03:58:03;;;;;;;;;;;15.70;99.90;;;;;;5072945;28;20384;-68
2022/09/05 04:00:32;;;;;;;;;;;15.60;99.90;;;;;;5056971;28;19946;-68
2022/09/05 04:03:10;;;;;;;;;;;15.60;99.90;;;;;;5061822;28;19921;-68
2022/09/05 04:05:56;;;;;;;;;;;15.60;99.90;;;;;;5036960;28;19932;-69
2022/09/05 04:08:28;;;;;;;;;;;15.60;99.90;;;;;;5036166;28;19929;-68
2022/09/05 04:11:03;;;;;;;;;;;15.60;99.90;;;;;;5056629;28;20530;-68
2022/09/05 04:13:32;;;;;;;;;;;15.60;99.90;;;;;;5044042;28;19925;-69
2022/09/05 04:16:09;;;;;;;;;;;15.60;99.90;;;;;;5054830;28;19929;-68
2022/09/05 04:18:40;;;;;;;;;;;15.50;99.90;;;;;;5036851;28;20019;-68
2022/09/05 04:21:12;;;;;;;;;;;15.60;99.90;;;;;;5067511;28;19935;-68
2022/09/05 04:23:47;;;;;;;;;;;15.50;99.90;;;;;;5072392;28;19920;-68
2022/09/05 04:26:18;;;;;;;;;;;15.50;99.90;;;;;;5072988;28;19924;-68
2022/09/05 04:28:44;;;;;;;;;;;15.50;99.90;;;;;;5056417;28;20408;-69
2022/09/05 04:31:25;;;;;;;;;;;15.40;99.90;;;;;;5039201;28;19920;-68
2022/09/05 04:34:03;;;;;;;;;;;15.30;99.90;;;;;;5056099;28;19921;-68
2022/09/05 04:36:32;;;;;;;;;;;15.30;99.90;;;;;;5055784;28;20414;-68
2022/09/05 04:39:08;;;;;;;;;;;15.30;99.90;;;;;;5065392;28;19964;-68
2022/09/05 04:41:38;;;;;;;;;;;15.30;99.90;;;;;;5072536;28;20342;-68
2022/09/05 04:44:08;;;;;;;;;;;15.30;99.90;;;;;;5070788;28;19977;-69
2022/09/05 04:46:43;;;;;;;;;;;15.20;99.90;;;;;;5050100;28;19932;-69
2022/09/05 04:49:20;;;;;;;;;;;15.20;99.90;;;;;;5032473;28;19924;-68
2022/09/05 04:52:05;;;;;;;;;;;15.20;99.90;;;;;;5043660;28;20007;-68
2022/09/05 04:54:49;;;;;;;;;;;15.20;99.90;;;;;;5053189;28;19928;-68
2022/09/05 04:57:27;;;;;;;;;;;15.20;99.90;;;;;;5061417;28;19935;-68
2022/09/05 04:59:58;;;;;;;;;;;15.20;99.90;;;;;;5071772;28;19925;-68
2022/09/05 05:02:36;;;;;;;;;;;15.10;99.90;;;;;;5056926;28;19920;-68
2022/09/05 05:05:03;;;;;;;;;;;15.10;99.90;;;;;;5035359;28;19925;-68
2022/09/05 05:07:37;;;;;;;;;;;15.00;99.90;;;;;;5053790;28;19921;-68
2022/09/05 05:10:05;;;;;;;;;;;15.00;99.90;;;;;;5036139;28;20485;-69
2022/09/05 05:12:43;;;;;;;;;;;15.00;99.90;;;;;;5023696;28;20378;-68
2022/09/05 05:15:17;;;;;;;;;;;15.00;99.90;;;;;;5039597;28;19925;-68
2022/09/05 05:17:51;;;;;;;;;;;15.00;99.90;;;;;;5055707;28;19929;-68
2022/09/05 05:20:25;;;;;;;;;;;15.10;99.90;;;;;;5034396;28;19971;-68
2022/09/05 05:23:09;;;;;;;;;;;15.10;99.90;;;;;;5053476;28;20625;-68
2022/09/05 05:25:44;;;;;;;;;;;15.10;99.90;;;;;;5061563;28;19928;-68
2022/09/05 05:28:11;;;;;;;;;;;15.10;99.90;;;;;;5072306;28;20374;-68
2022/09/05 05:30:37;;;;;;;;;;;15.20;99.90;;;;;;5073736;28;19920;-68
2022/09/05 05:33:10;;;;;;;;;;;15.20;99.90;;;;;;5073402;28;19978;-68
2022/09/05 05:35:37;;;;;;;;;;;15.30;99.90;;;;;;5070706;28;19920;-68
2022/09/05 05:38:12;;;;;;;;;;;15.40;99.90;;;;;;5055203;28;19932;-68
2022/09/05 05:40:42;;;;;;;;;;;15.40;99.90;;;;;;5048844;28;19971;-68
2022/09/05 05:43:15;;;;;;;;;;;15.40;99.90;;;;;;5072615;28;20312;-68
2022/09/05 05:45:40;;;;;;;;;;;15.40;99.90;;;;;;5073186;28;20557;-68
2022/09/05 05:48:12;;;;;;;;;;;15.60;99.90;;;;;;5053540;28;19925;-68
2022/09/05 05:50:56;;;;;;;;;;;15.60;99.90;;;;;;5054030;28;20015;-68
2022/09/05 05:53:24;;;;;;;;;;;15.70;99.90;;;;;;5028378;28;20011;-68
2022/09/05 05:55:50;;;;;;;;;;;15.90;99.90;;;;;;5063588;28;20427;-68
2022/09/05 05:58:27;;;;;;;;;;;16.00;99.90;;;;;;5051363;28;19921;-68
2022/09/05 06:01:11;;;;;;;;;;;16.50;99.90;;;;;;5062873;28;20416;-69
2022/09/05 06:03:55;;;;;;;;;;;17.40;99.90;;;;;;5052769;28;20286;-70
2022/09/05 06:06:32;;;;;;;;;;;18.40;99.90;;;;;;5053015;28;20008;-68
2022/09/05 06:08:57;;;;;;;;;;;18.70;99.90;;;;;;5063401;28;19975;-68
2022/09/05 06:11:38;;;;;;;;;;;18.70;99.90;;;;;;5064199;28;19976;-68
2022/09/05 06:14:18;;;;;;;;;;;18.50;99.90;;;;;;5061883;28;19965;-68
2022/09/05 06:16:47;;;;;;;;;;;18.40;99.90;;;;;;5070740;28;19975;-70
2022/09/05 06:19:21;;;;;;;;;;;18.30;99.90;;;;;;5071435;28;20347;-68
2022/09/05 06:22:09;;;;;;;;;;;18.70;99.90;;;;;;5057190;28;20489;-68
2022/09/05 06:24:56;;;;;;;;;;;19.50;99.90;;;;;;5079605;28;19924;-68
2022/09/05 06:27:30;;;;;;;;;;;20.50;99.00;;;;;;5072470;28;19927;-69
2022/09/05 06:29:58;;;;;;;;;;;21.10;96.20;;;;;;5072857;28;20050;-68
2022/09/05 06:32:46;;;;;;;;;;;21.70;94.90;;;;;;5053802;28;19974;-69
2022/09/05 06:35:25;;;;;;;;;;;22.10;94.20;;;;;;5025128;28;19944;-69
2022/09/05 06:38:26;;;;;;;;;;;23.00;93.80;;;;;;5053468;28;19920;-68
2022/09/05 06:41:12;;;;;;;;;;;23.30;90.70;;;;;;4954939;28;20472;-68
2022/09/05 06:43:56;;;;;;;;;;;24.20;90.40;;;;;;5043995;28;19929;-69
2022/09/05 06:46:32;;;;;;;;;;;24.60;87.30;;;;;;5067103;28;19920;-69
2022/09/05 06:49:11;;;;;;;;;;;25.30;85.20;;;;;;5066020;28;19920;-69
2022/09/05 06:51:51;;;;;;;;;;;25.60;83.40;;;;;;5071273;28;20511;-69
2022/09/05 06:54:36;;;;;;;;;;;26.30;82.40;;;;;;5052219;28;19930;-69
2022/09/05 06:57:17;;;;;;;;;;;26.50;80.10;;;;;;5070768;28;19924;-69
2022/09/05 07:00:02;;;;;;;;;;;26.90;79.50;;;;;;5059298;28;19925;-69
2022/09/05 07:02:38;;;;;;;;;;;27.10;80.70;;;;;;5023700;28;19921;-69
2022/09/05 07:05:14;;;;;;;;;;;27.50;76.00;;;;;;5057283;28;20432;-69
2022/09/05 07:07:46;;;;;;;;;;;27.20;76.50;;;;;;5050426;28;19925;-69
2022/09/05 07:10:16;;;;;;;;;;;27.40;75.40;;;;;;5051222;28;19921;-69
2022/09/05 07:12:47;;;;;;;;;;;27.40;77.10;;;;;;5046431;28;19924;-69
2022/09/05 07:15:17;;;;;;;;;;;27.40;76.30;;;;;;5069795;28;20364;-69
2022/09/05 07:18:01;;;;;;;;;;;27.10;76.10;;;;;;5068192;28;20522;-69
2022/09/05 07:20:34;;;;;;;;;;;26.90;75.60;;;;;;5068587;28;19983;-69
2022/09/05 07:23:16;;;;;;;;;;;26.10;75.50;;;;;;5064104;28;19920;-69
2022/09/05 07:25:44;;;;;;;;;;;26.50;76.20;;;;;;5069827;28;19928;-68
2022/09/05 07:28:11;;;;;;;;;;;26.70;76.50;;;;;;5053515;28;20289;-69
2022/09/05 07:30:38;;;;;;;;;;;26.80;76.40;;;;;;5075722;28;19963;-69
2022/09/05 07:33:04;;;;;;;;;;;26.50;78.20;;;;;;5076191;28;19982;-69
2022/09/05 07:35:32;;;;;;;;;;;26.30;77.20;;;;;;5075650;28;19920;-69
2022/09/05 07:38:08;;;;;;;;;;;26.30;77.20;;;;;;5035183;28;19994;-69
2022/09/05 07:40:36;;;;;;;;;;;26.70;77.80;;;;;;5074748;28;19924;-69
2022/09/05 07:43:04;;;;;;;;;;;26.80;77.10;;;;;;5070444;28;19935;-69
2022/09/05 07:45:30;;;;;;;;;;;26.30;78.10;;;;;;5052734;28;20007;-68
2022/09/05 07:47:59;;;;;;;;;;;25.80;78.50;;;;;;5054280;28;19920;-68
2022/09/05 07:50:26;;;;;;;;;;;25.10;79.60;;;;;;5054648;28;19935;-68
2022/09/05 07:52:54;;;;;;;;;;;24.80;80.60;;;;;;5072180;28;19930;-68
2022/09/05 07:55:24;;;;;;;;;;;24.60;80.50;;;;;;5055816;28;19920;-68
2022/09/05 07:57:50;;;;;;;;;;;24.10;82.20;;;;;;5057997;28;20152;-69
2022/09/05 08:00:20;;;;;;;;;;;24.00;83.50;;;;;;5070265;28;20008;-69
2022/09/05 08:02:46;;;;;;;;;;;23.70;84.30;;;;;;5056578;28;20266;-69
2022/09/05 08:05:20;;;;;;;;;;;23.50;84.80;;;;;;5056516;28;19921;-69
2022/09/05 08:07:49;;;;;;;;;;;23.50;85.90;;;;;;5073151;28;20384;-69
2022/09/05 08:10:21;;;;;;;;;;;23.50;85.30;;;;;;5062752;28;19925;-69
2022/09/05 08:12:51;;;;;;;;;;;23.60;85.60;;;;;;5051826;28;19928;-69
2022/09/05 08:15:21;;;;;;;;;;;23.50;85.60;;;;;;5034095;28;20028;-69
2022/09/05 08:17:47;;;;;;;;;;;23.50;85.80;;;;;;5051873;28;20262;-69
2022/09/05 08:20:12;;;;;;;;;;;23.50;86.40;;;;;;5061507;28;19928;-69
2022/09/05 08:23:02;;;;;;;;;;;23.60;85.70;;;;;;5062304;28;19931;-69
2022/09/05 08:25:47;;;;;;;;;;;23.70;86.70;;;;;;5065711;28;19931;-69
2022/09/05 08:28:18;;;;;;;;;;;23.80;86.50;;;;;;5055384;28;19921;-69
2022/09/05 08:30:52;;;;;;;;;;;23.90;86.20;;;;;;5074470;28;19964;-69
2022/09/05 08:33:25;;;;;;;;;;;24.10;86.80;;;;;;5073297;28;19928;-69
2022/09/05 08:35:54;;;;;;;;;;;24.20;87.30;;;;;;5074393;28;19970;-69
2022/09/05 08:38:20;;;;;;;;;;;24.30;87.80;;;;;;5058838;28;19974;-70
2022/09/05 08:40:50;;;;;;;;;;;24.30;87.20;;;;;;5035591;28;19948;-70
2022/09/05 08:43:25;;;;;;;;;;;24.50;86.90;;;;;;5054540;28;19947;-69
2022/09/05 08:45:58;;;;;;;;;;;24.70;87.30;;;;;;5059212;28;19928;-69
2022/09/05 08:48:23;;;;;;;;;;;24.90;87.20;;;;;;5062467;28;19974;-69
2022/09/05 08:50:54;;;;;;;;;;;25.00;85.80;;;;;;5047030;28;20309;-69
2022/09/05 08:53:28;;;;;;;;;;;25.00;85.30;;;;;;5068379;28;19939;-69
2022/09/05 08:55:59;;;;;;;;;;;25.10;85.50;;;;;;5066975;28;19936;-69
2022/09/05 08:58:34;;;;;;;;;;;25.20;83.80;;;;;;5071100;28;19942;-69
2022/09/05 09:01:12;;;;;;;;;;;25.20;85.40;;;;;;5047286;28;20030;-69
2022/09/05 09:03:49;;;;;;;;;;;25.40;83.20;;;;;;5070008;28;19947;-69
2022/09/05 09:06:19;;;;;;;;;;;25.40;84.40;;;;;;5067788;28;19928;-69
2022/09/05 09:08:53;;;;;;;;;;;25.30;85.50;;;;;;5073539;28;19928;-69
2022/09/05 09:11:31;;;;;;;;;;;25.40;85.60;;;;;;5064488;28;19937;-69
2022/09/05 09:14:14;;;;;;;;;;;25.50;82.30;;;;;;5062002;28;19924;-69
2022/09/05 09:16:43;;;;;;;;;;;25.50;84.30;;;;;;5044858;28;19924;-69
2022/09/05 09:19:16;;;;;;;;;;;25.60;82.80;;;;;;5061396;28;19935;-68
2022/09/05 09:21:48;;;;;;;;;;;25.80;81.10;;;;;;5065765;28;19924;-68
2022/09/05 09:24:21;;;;;;;;;;;25.80;80.50;;;;;;5067312;28;19932;-68
2022/09/05 09:26:56;;;;;;;;;;;25.70;82.30;;;;;;5071619;28;19927;-68
2022/09/05 09:29:22;;;;;;;;;;;25.80;83.10;;;;;;5052186;28;20308;-69
2022/09/05 09:32:06;;;;;;;;;;;25.90;81.40;;;;;;5052564;28;19950;-70
2022/09/05 09:34:38;;;;;;;;;;;25.90;82.60;;;;;;5062315;28;19920;-70
2022/09/05 09:37:22;;;;;;;;;;;26.10;82.10;;;;;;5066623;28;20373;-68
2022/09/05 09:40:03;;;;;;;;;;;26.00;82.70;;;;;;5072681;28;19928;-67
2022/09/05 09:42:44;;;;;;;;;;;26.10;84.10;;;;;;5041176;28;19925;-67
2022/09/05 09:45:20;;;;;;;;;;;26.10;82.60;;;;;;5053232;28;19921;-67
2022/09/05 09:47:46;;;;;;;;;;;26.20;83.50;;;;;;5071907;28;20015;-67
2022/09/05 09:50:25;;;;;;;;;;;26.20;82.70;;;;;;5051886;28;20007;-67
2022/09/05 09:53:26;;;;;;;;;;;26.40;80.20;;;;;;5054419;28;19962;-67
2022/09/05 09:56:10;;;;;;;;;;;26.50;80.10;;;;;;4991068;28;19921;-67
2022/09/05 09:58:51;;;;;;;;;;;26.50;80.60;;;;;;5062268;28;19978;-68
2022/09/05 10:01:28;;;;;;;;;;;26.50;82.50;;;;;;5036872;28;19931;-68
2022/09/05 10:04:03;;;;;;;;;;;26.60;80.20;;;;;;5053293;28;20436;-68
2022/09/05 10:06:41;;;;;;;;;;;26.70;80.00;;;;;;5054779;28;19931;-68
2022/09/05 10:09:13;;;;;;;;;;;26.80;80.30;;;;;;5072974;28;19920;-68
2022/09/05 10:11:54;;;;;;;;;;;27.00;79.50;;;;;;5072595;28;20775;-68
2022/09/05 10:14:39;;;;;;;;;;;27.10;78.70;;;;;;5054378;28;19931;-68
2022/09/05 10:17:12;;;;;;;;;;;27.20;77.70;;;;;;5039713;28;20019;-68
2022/09/05 10:19:50;;;;;;;;;;;27.30;78.40;;;;;;5067512;28;19967;-68
2022/09/05 10:22:34;;;;;;;;;;;27.30;79.80;;;;;;5072546;28;19921;-68
2022/09/05 10:24:59;;;;;;;;;;;27.40;78.30;;;;;;5070233;28;19920;-68
2022/09/05 10:27:48;;;;;;;;;;;27.50;79.00;;;;;;5037634;28;19931;-68
2022/09/05 10:30:19;;;;;;;;;;;27.60;77.60;;;;;;5058046;28;19920;-68
2022/09/05 10:32:53;;;;;;;;;;;27.80;77.80;;;;;;5053635;28;19960;-68
2022/09/05 10:35:30;;;;;;;;;;;27.60;77.20;;;;;;5072047;28;19920;-68
2022/09/05 10:38:14;;;;;;;;;;;27.70;77.40;;;;;;5071332;28;19959;-68
2022/09/05 10:40:42;;;;;;;;;;;27.80;77.70;;;;;;5038303;28;19975;-68
2022/09/05 10:43:12;;;;;;;;;;;27.90;76.60;;;;;;5032937;28;20367;-68
2022/09/05 10:45:45;;;;;;;;;;;28.00;75.20;;;;;;5051365;28;19925;-68
2022/09/05 10:48:16;;;;;;;;;;;28.10;75.50;;;;;;5043137;28;20366;-69
2022/09/05 10:50:43;;;;;;;;;;;28.20;75.30;;;;;;5071863;28;19970;-68
2022/09/05 10:53:11;;;;;;;;;;;28.00;75.50;;;;;;5053682;28;20389;-68
2022/09/05 10:55:48;;;;;;;;;;;28.10;75.30;;;;;;5069528;28;19960;-68
2022/09/05 10:58:32;;;;;;;;;;;28.00;75.60;;;;;;5053714;28;19966;-68
2022/09/05 11:01:15;;;;;;;;;;;28.10;75.80;;;;;;5071661;28;19939;-68
2022/09/05 11:03:44;;;;;;;;;;;28.20;75.30;;;;;;5068020;28;20542;-68
2022/09/05 11:06:12;;;;;;;;;;;28.30;76.00;;;;;;5070502;28;19927;-68
2022/09/05 11:08:44;;;;;;;;;;;28.30;75.50;;;;;;5053861;28;19920;-68
2022/09/05 11:11:11;;;;;;;;;;;28.40;74.60;;;;;;5070014;28;19927;-68
2022/09/05 11:13:46;;;;;;;;;;;28.40;74.80;;;;;;5050858;28;19932;-68
2022/09/05 11:16:24;;;;;;;;;;;28.50;75.40;;;;;;5056367;28;20011;-68
2022/09/05 11:18:55;;;;;;;;;;;28.40;74.50;;;;;;5070700;28;19931;-68
2022/09/05 11:21:26;;;;;;;;;;;28.50;75.30;;;;;;5033553;28;19928;-68
2022/09/05 11:23:54;;;;;;;;;;;28.50;75.20;;;;;;5068098;28;19921;-68
2022/09/05 11:26:32;;;;;;;;;;;28.60;74.60;;;;;;5048649;28;20028;-70
2022/09/05 11:29:18;;;;;;;;;;;28.60;73.70;;;;;;5049877;28;19951;-70
2022/09/05 11:31:47;;;;;;;;;;;28.40;74.50;;;;;;5060824;28;20330;-69
2022/09/05 11:34:21;;;;;;;;;;;28.10;74.80;;;;;;5067230;28;19939;-69
2022/09/05 11:36:48;;;;;;;;;;;28.10;76.10;;;;;;5070925;28;20291;-70
2022/09/05 11:39:23;;;;;;;;;;;28.10;75.30;;;;;;5067826;28;19932;-69
2022/09/05 11:41:57;;;;;;;;;;;28.30;74.90;;;;;;5071228;28;19958;-69
2022/09/05 11:44:26;;;;;;;;;;;28.50;74.70;;;;;;5054633;28;19920;-70
2022/09/05 11:47:04;;;;;;;;;;;28.60;75.70;;;;;;5057210;28;19970;-69
2022/09/05 11:49:41;;;;;;;;;;;28.70;75.50;;;;;;5053253;28;20374;-69
2022/09/05 11:52:15;;;;;;;;;;;28.90;74.60;;;;;;5053389;28;19928;-69
2022/09/05 11:54:40;;;;;;;;;;;28.60;74.20;;;;;;5069498;28;19967;-69
2022/09/05 11:57:24;;;;;;;;;;;28.60;73.60;;;;;;5069312;28;19971;-69
2022/09/05 12:00:06;;;;;;;;;;;28.70;74.20;;;;;;5071900;28;19920;-70
2022/09/05 12:02:48;;;;;;;;;;;28.80;73.70;;;;;;5073576;28;19925;-69
2022/09/05 12:05:41;;;;;;;;;;;28.90;75.00;;;;;;5064400;28;19927;-71
2022/09/05 12:08:19;;;;;;;;;;;29.00;74.60;;;;;;5033431;28;19936;-71
2022/09/05 12:11:04;;;;;;;;;;;29.20;72.80;;;;;;5047205;28;19932;-69
2022/09/05 12:13:34;;;;;;;;;;;29.30;73.40;;;;;;5058682;28;20297;-72
2022/09/05 12:16:00;;;;;;;;;;;29.30;72.50;;;;;;5075850;28;20929;-71
2022/09/05 12:18:27;;;;;;;;;;;29.50;73.30;;;;;;5074690;28;19932;-71
2022/09/05 12:20:53;;;;;;;;;;;29.60;73.00;;;;;;5074539;28;20329;-71
2022/09/05 12:23:31;;;;;;;;;;;29.80;73.60;;;;;;5074640;28;19920;-71
2022/09/05 12:26:01;;;;;;;;;;;29.70;70.60;;;;;;5073847;28;19920;-71
2022/09/05 12:28:31;;;;;;;;;;;29.60;70.40;;;;;;5056315;28;20602;-71
2022/09/05 12:31:14;;;;;;;;;;;29.60;69.40;;;;;;5057594;28;19920;-71
2022/09/05 12:33:42;;;;;;;;;;;29.60;70.80;;;;;;5070779;28;19920;-70
2022/09/05 12:36:27;;;;;;;;;;;29.60;71.70;;;;;;5051582;28;19956;-70
2022/09/05 12:39:12;;;;;;;;;;;29.70;72.40;;;;;;5074376;28;19978;-71
2022/09/05 12:42:01;;;;;;;;;;;29.90;72.00;;;;;;5073077;28;19920;-70
2022/09/05 12:44:45;;;;;;;;;;;30.10;72.50;;;;;;5051727;28;20302;-71
2022/09/05 12:47:11;;;;;;;;;;;;;;;;;;5046822;28;20505;-71
2022/09/05 12:49:39;;;;;;;;;;;30.50;70.60;;;;;;5052742;28;19928;-71
2022/09/05 12:52:08;;;;;;;;;;;30.50;68.30;;;;;;5067613;28;19967;-69
2022/09/05 12:54:40;;;;;;;;;;;30.20;69.10;;;;;;5073697;28;19993;-71
2022/09/05 12:57:27;;;;;;;;;;;30.10;68.60;;;;;;5074872;28;19948;-70
2022/09/05 12:59:58;;;;;;;;;;;30.10;70.00;;;;;;5074067;28;19920;-71
2022/09/05 13:02:29;;;;;;;;;;;30.20;69.10;;;;;;5074300;28;19927;-71
2022/09/05 13:05:02;;;;;;;;;;;30.30;69.20;;;;;;5054565;28;19950;-69
2022/09/05 13:07:41;;;;;;;;;;;30.30;67.30;;;;;;5052530;28;19925;-68
2022/09/05 13:10:11;;;;;;;;;;;30.30;66.80;;;;;;5058301;28;19952;-69
2022/09/05 13:12:54;;;;;;;;;;;30.20;67.50;;;;;;5066785;28;20441;-69
2022/09/05 13:15:25;;;;;;;;;;;30.20;68.50;;;;;;5061358;28;19932;-69
2022/09/05 13:18:03;;;;;;;;;;;30.20;70.20;;;;;;5034929;28;19925;-69
2022/09/05 13:20:35;;;;;;;;;;;30.00;68.50;;;;;;5054115;28;20003;-69
2022/09/05 13:23:04;;;;;;;;;;;29.70;67.40;;;;;;5045374;28;19928;-69
2022/09/05 13:25:30;;;;;;;;;;;29.70;66.90;;;;;;5038218;28;19925;-69
2022/09/05 13:28:02;;;;;;;;;;;29.70;69.50;;;;;;5059729;28;19925;-69
2022/09/05 13:30:30;;;;;;;;;;;29.70;70.10;;;;;;5061622;28;19969;-71
2022/09/05 13:32:58;;;;;;;;;;;29.60;69.40;;;;;;5037916;28;19924;-69
2022/09/05 13:35:26;;;;;;;;;;;29.70;71.30;;;;;;5051211;28;19920;-69
2022/09/05 13:38:12;;;;;;;;;;;29.80;71.90;;;;;;5068494;28;19925;-69
2022/09/05 13:40:46;;;;;;;;;;;29.80;68.30;;;;;;5067342;28;20011;-69
2022/09/05 13:43:13;;;;;;;;;;;30.00;71.40;;;;;;5071258;28;20035;-69
2022/09/05 13:46:02;;;;;;;;;;;30.10;70.90;;;;;;5054135;28;20370;-69
2022/09/05 13:48:36;;;;;;;;;;;30.20;69.00;;;;;;5051563;28;20239;-69
2022/09/05 13:51:26;;;;;;;;;;;30.50;66.30;;;;;;5054580;28;20303;-69
2022/09/05 13:54:07;;;;;;;;;;;30.70;66.50;;;;;;5072699;28;20274;-70
2022/09/05 13:56:39;;;;;;;;;;;30.90;67.80;;;;;;5045688;28;19932;-69
2022/09/05 13:59:07;;;;;;;;;;;30.90;68.30;;;;;;5072590;28;19931;-69
2022/09/05 14:01:39;;;;;;;;;;;31.00;67.00;;;;;;5049121;28;19924;-70
2022/09/05 14:04:11;;;;;;;;;;;31.00;66.10;;;;;;5035104;28;20427;-69
2022/09/05 14:06:47;;;;;;;;;;;30.80;64.50;;;;;;5069193;28;19921;-69
2022/09/05 14:09:26;;;;;;;;;;;30.90;67.20;;;;;;5049563;28;19921;-69
2022/09/05 14:12:06;;;;;;;;;;;31.10;66.80;;;;;;5050623;28;20050;-69
2022/09/05 14:14:36;;;;;;;;;;;30.90;65.90;;;;;;5066654;28;19925;-69
2022/09/05 14:17:07;;;;;;;;;;;31.10;68.50;;;;;;5045876;28;19971;-69
2022/09/05 14:22:37;;;;;;;;;;;30.80;66.50;;;;;;5070331;28;19920;-69
2022/09/05 14:25:05;;;;;;;;;;;30.60;65.60;;;;;;5061898;28;19921;-69
2022/09/05 14:27:30;;;;;;;;;;;30.60;68.60;;;;;;5070283;28;20446;-69
2022/09/05 14:29:56;;;;;;;;;;;30.50;68.00;;;;;;5068857;28;20007;-69
2022/09/05 14:32:30;;;;;;;;;;;30.50;68.90;;;;;;5059452;28;19927;-69
2022/09/05 14:34:55;;;;;;;;;;;30.40;67.00;;;;;;5064939;28;19939;-69
2022/09/05 14:37:21;;;;;;;;;;;30.00;67.00;;;;;;5051041;28;19921;-69
2022/09/05 14:40:02;;;;;;;;;;;29.90;67.40;;;;;;5052414;28;20011;-69
2022/09/05 14:42:46;;;;;;;;;;;29.80;68.00;;;;;;5062824;28;19928;-69
2022/09/05 14:45:19;;;;;;;;;;;29.60;67.50;;;;;;5066942;28;19921;-69
2022/09/05 14:47:45;;;;;;;;;;;29.50;67.30;;;;;;5070550;28;19926;-70
2022/09/05 14:50:17;;;;;;;;;;;29.60;69.90;;;;;;5051270;28;20296;-69
2022/09/05 14:53:19;;;;;;;;;;;29.50;67.40;;;;;;5042210;28;19927;-70
2022/09/05 14:55:55;;;;;;;;;;;29.50;69.70;;;;;;4989189;28;19922;-70
2022/09/05 14:58:25;;;;;;;;;;;29.40;69.20;;;;;;5042679;28;20306;-70
2022/09/05 15:01:02;;;;;;;;;;;29.20;72.90;;;;;;5071846;28;19939;-69
2022/09/05 15:03:35;;;;;;;;;;;29.10;70.20;;;;;;5052765;28;20485;-70
2022/09/05 15:06:14;;;;;;;;;;;29.00;71.60;;;;;;5069336;28;20018;-69